Turecamo Girls — WDC3464 — position and weather

sailwx.info

Track history (hours):
 
Tides and Currents Weather Stations Pressure Air Temp Water Temp Dewpoint Dewpoint Depression Visibility Wind Speed Wind Dir Waves Ship Positions

Turecamo Girls

Owner: Moran Towing Corporation, New Canaan, CT. More information available from US FCC via Universal Licensing System and Coast Guard Vessel Documentation Center.

Last reported at 2017-Nov-20 00:29 UTC. Time now 2017-Nov-20 15:22 UTC.
Position N 40°38' W 074°08'.

Length 30 m; draft 4 m.

Type: Tug. MMSI: 366946710.

Date/timePositionNaut miles runAvg speedWind from/ knotsBaromVisibWave heightAir tempDewpointWater temp
2017-Nov-20 00:29N 40°38' W 074°08'0 0.0
2017-Nov-19 23:59N 40°38' W 074°08'0 0.0
2017-Nov-19 23:26N 40°38' W 074°08'0 0.0
2017-Nov-19 22:59N 40°38' W 074°08'0 0.0
2017-Nov-19 22:25N 40°38' W 074°08'0 0.0
2017-Nov-19 21:58N 40°38' W 074°08'0 0.0
2017-Nov-19 20:40N 40°38' W 074°08'0 0.0
2017-Nov-19 20:28N 40°38' W 074°08'0 0.0
2017-Nov-19 19:58N 40°38' W 074°08'0 0.0
2017-Nov-19 19:28N 40°38' W 074°08'0 0.0
2017-Nov-19 18:58N 40°38' W 074°08'0 0.1
2017-Nov-19 18:30N 40°38' W 074°08'3 5.9
2017-Nov-19 18:01N 40°40' W 074°04'510.4
2017-Nov-19 17:30N 40°43' W 073°59'3 5.7
2017-Nov-19 16:58N 40°46' W 073°57'0 0.0
2017-Nov-19 16:28N 40°46' W 073°57'0 0.0
2017-Nov-19 15:58N 40°46' W 073°57'0 0.0
2017-Nov-19 15:28N 40°46' W 073°57'0 0.8
2017-Nov-19 15:00N 40°45' W 073°57'4 8.1
2017-Nov-19 14:30N 40°42' W 074°00'4 8.8
2017-Nov-19 14:00N 40°39' W 074°05'2 3.5
2017-Nov-19 13:19N 40°38' W 074°08'0 0.0
2017-Nov-19 13:00N 40°38' W 074°08'3 6.3
2017-Nov-19 12:30N 40°40' W 074°04'0 0.0
2017-Nov-19 12:00N 40°40' W 074°04'0 0.0
2017-Nov-19 11:30N 40°40' W 074°04'0 0.0
2017-Nov-19 11:00N 40°40' W 074°04'0 0.0
2017-Nov-19 10:30N 40°40' W 074°04'0 0.0
2017-Nov-19 10:00N 40°40' W 074°04'0 0.0
2017-Nov-19 09:30N 40°40' W 074°04'0 0.0
2017-Nov-19 09:00N 40°40' W 074°04'0 0.0
2017-Nov-19 08:30N 40°40' W 074°04'0 0.0
2017-Nov-19 08:00N 40°40' W 074°04'0 0.0
2017-Nov-19 07:30N 40°40' W 074°04'0 0.0
2017-Nov-19 07:00N 40°40' W 074°04'0 0.0
2017-Nov-19 06:30N 40°40' W 074°04'0 0.0
2017-Nov-19 06:00N 40°40' W 074°04'0 0.0
2017-Nov-19 05:30N 40°40' W 074°04'0 0.0
2017-Nov-19 05:00N 40°40' W 074°04'0 0.0
2017-Nov-19 04:27N 40°40' W 074°04'0 0.6
2017-Nov-19 04:00N 40°40' W 074°04'0 0.0
2017-Nov-19 03:30N 40°40' W 074°04'0 0.0
2017-Nov-19 03:00N 40°40' W 074°04'0 0.0
2017-Nov-19 02:30N 40°40' W 074°04'0 0.0
2017-Nov-19 01:59N 40°40' W 074°04'0 0.0
2017-Nov-19 01:29N 40°40' W 074°04'0 0.0
2017-Nov-19 00:59N 40°40' W 074°04'0 0.0
2017-Nov-19 00:29N 40°40' W 074°04'0 0.0
2017-Nov-18 23:59N 40°40' W 074°04'0 0.0
2017-Nov-18 23:29N 40°40' W 074°04'0 0.0
2017-Nov-18 22:59N 40°40' W 074°04'0 0.0
2017-Nov-18 22:29N 40°40' W 074°04'0 0.0
2017-Nov-18 21:59N 40°40' W 074°04'0 0.0
2017-Nov-18 21:29N 40°40' W 074°04'0 0.0
2017-Nov-18 20:59N 40°40' W 074°04'0 0.0
2017-Nov-18 20:29N 40°40' W 074°04'0 0.0
2017-Nov-18 19:59N 40°40' W 074°04'0 0.0
2017-Nov-18 19:29N 40°40' W 074°04'1 2.0
2017-Nov-18 18:58N 40°39' W 074°05'0 0.3
2017-Nov-18 18:28N 40°39' W 074°05'1 2.0
2017-Nov-18 18:00N 40°39' W 074°06'1 0.8
2017-Nov-18 16:27N 40°38' W 074°08'0 0.0
2017-Nov-18 14:48N 40°38' W 074°08'0 0.0
2017-Nov-18 14:27N 40°38' W 074°08'0 0.0
2017-Nov-18 14:00N 40°38' W 074°08'0 0.0
2017-Nov-18 13:08N 40°38' W 074°08'0 0.8
2017-Nov-18 13:00N 40°39' W 074°08'3 6.9
2017-Nov-18 12:30N 40°37' W 074°12'2 3.7
2017-Nov-18 11:56N 40°35' W 074°12'0 0.0
2017-Nov-18 11:17N 40°35' W 074°12'0 0.8
2017-Nov-18 10:53N 40°36' W 074°12'2 4.3
2017-Nov-18 10:30N 40°37' W 074°12'2 4.5
2017-Nov-18 10:00N 40°39' W 074°10'2 2.8
2017-Nov-18 09:22N 40°38' W 074°08'0 0.0
2017-Nov-18 08:58N 40°38' W 074°08'0 0.0
2017-Nov-18 08:28N 40°38' W 074°08'0 0.0
2017-Nov-18 07:58N 40°38' W 074°08'0 0.0
2017-Nov-18 07:28N 40°38' W 074°08'0 0.0
2017-Nov-18 06:58N 40°38' W 074°08'0 0.0
2017-Nov-18 06:28N 40°38' W 074°08'0 0.0
2017-Nov-18 05:55N 40°38' W 074°08'0 0.0
2017-Nov-18 05:25N 40°38' W 074°08'0 0.0
2017-Nov-18 04:58N 40°38' W 074°08'0 0.0
2017-Nov-18 04:28N 40°38' W 074°08'0 0.0
2017-Nov-18 03:58N 40°38' W 074°08'0 0.0
2017-Nov-18 03:28N 40°38' W 074°08'0 0.0
2017-Nov-18 02:58N 40°38' W 074°08'0 0.0
2017-Nov-18 02:25N 40°38' W 074°08'0 0.0
2017-Nov-18 01:58N 40°38' W 074°08'0 0.0
2017-Nov-18 01:28N 40°38' W 074°08'1 1.2
2017-Nov-18 00:39N 40°39' W 074°07'0 0.0
2017-Nov-18 00:27N 40°39' W 074°07'0 0.2
2017-Nov-18 00:00N 40°39' W 074°07'3 5.8
2017-Nov-17 23:29N 40°39' W 074°03'2 3.7
2017-Nov-17 23:00N 40°41' W 074°02'1 2.0
2017-Nov-17 22:30N 40°41' W 074°01'1 1.5
2017-Nov-17 22:01N 40°41' W 074°01'3 6.2
2017-Nov-17 21:31N 40°39' W 074°04'3 4.6
2017-Nov-17 20:56N 40°38' W 074°08'0 0.1
2017-Nov-17 20:30N 40°38' W 074°08'0 0.0
2017-Nov-17 19:05N 40°38' W 074°08'0 0.7
2017-Nov-17 19:00N 40°39' W 074°08'2 3.9
2017-Nov-17 18:28N 40°39' W 074°05'1 1.3
2017-Nov-17 18:01N 40°39' W 074°04'1 1.9
2017-Nov-17 17:28N 40°40' W 074°04'0 0.0
2017-Nov-17 16:58N 40°40' W 074°04'0 0.0
2017-Nov-17 16:28N 40°40' W 074°04'0 0.0
2017-Nov-17 15:58N 40°40' W 074°04'0 0.0
2017-Nov-17 15:28N 40°40' W 074°04'1 1.5
2017-Nov-17 14:58N 40°40' W 074°05'1 1.3
2017-Nov-17 14:30N 40°40' W 074°04'2 4.6
2017-Nov-17 13:59N 40°38' W 074°03'0 0.4
2017-Nov-17 13:24N 40°38' W 074°03'2 4.9
2017-Nov-17 13:00N 40°39' W 074°05'2 3.1
2017-Nov-17 12:21N 40°38' W 074°08'0 0.1
2017-Nov-17 12:00N 40°38' W 074°08'3 5.2
2017-Nov-17 11:30N 40°41' W 074°08'0 0.2
2017-Nov-17 11:00N 40°41' W 074°08'1 2.9
2017-Nov-17 10:30N 40°40' W 074°08'1 2.9
2017-Nov-17 10:01N 40°39' W 074°07'3 5.9
2017-Nov-17 09:31N 40°38' W 074°03'1 1.0
2017-Nov-17 08:59N 40°38' W 074°03'2 4.8
2017-Nov-17 08:30N 40°39' W 074°06'2 1.9
2017-Nov-17 07:40N 40°38' W 074°08'0 0.0
2017-Nov-17 07:28N 40°38' W 074°08'0 0.0
2017-Nov-17 06:52N 40°38' W 074°08'0 0.0
2017-Nov-17 06:28N 40°38' W 074°08'0 0.1
2017-Nov-17 05:42N 40°38' W 074°08'1 4.4
2017-Nov-17 05:29N 40°39' W 074°07'0 0.1
2017-Nov-17 04:58N 40°39' W 074°07'1 2.0
2017-Nov-17 04:28N 40°38' W 074°08'0 0.0
2017-Nov-17 03:55N 40°38' W 074°08'3 7.1
2017-Nov-17 03:30N 40°38' W 074°12'1 1.1
2017-Nov-17 02:58N 40°38' W 074°12'0 0.2
2017-Nov-17 01:53N 40°38' W 074°12'3 2.5
2017-Nov-17 00:51N 40°35' W 074°13'0 0.1
2017-Nov-16 21:26N 40°35' W 074°12'1 3.4
2017-Nov-16 21:00N 40°37' W 074°12'2 4.4
2017-Nov-16 20:29N 40°39' W 074°11'2 4.5
2017-Nov-16 19:59N 40°39' W 074°08'0 0.3
2017-Nov-16 19:24N 40°38' W 074°08'0 0.0
2017-Nov-16 18:48N 40°38' W 074°08'0 0.0
2017-Nov-16 18:27N 40°38' W 074°08'1 2.0
2017-Nov-16 17:58N 40°39' W 074°07'1 1.6
2017-Nov-16 17:30N 40°39' W 074°06'1 0.9
2017-Nov-16 16:56N 40°39' W 074°05'2 1.4
2017-Nov-16 15:25N 40°38' W 074°08'0 0.0
2017-Nov-16 14:43N 40°38' W 074°08'0 0.0
2017-Nov-16 14:25N 40°38' W 074°08'0 0.0
2017-Nov-16 13:58N 40°38' W 074°08'3 4.9
2017-Nov-16 13:27N 40°39' W 074°11'3 2.0
2017-Nov-16 11:50N 40°36' W 074°12'2 4.4
2017-Nov-16 11:29N 40°37' W 074°12'3 5.4
2017-Nov-16 11:00N 40°39' W 074°10'1 2.6
2017-Nov-16 10:29N 40°38' W 074°08'0 0.0
2017-Nov-16 09:59N 40°38' W 074°08'1 1.5
2017-Nov-16 09:30N 40°39' W 074°07'510.1
2017-Nov-16 09:00N 40°41' W 074°01'4 7.8
2017-Nov-16 08:30N 40°44' W 073°58'5 6.5
2017-Nov-16 07:45N 40°48' W 073°54'0 0.1
2017-Nov-16 07:18N 40°48' W 073°54'1 2.3
2017-Nov-16 07:00N 40°48' W 073°55'3 5.1
2017-Nov-16 06:30N 40°46' W 073°57'3 5.1
2017-Nov-16 06:00N 40°43' W 073°58'2 4.6
2017-Nov-16 05:30N 40°42' W 074°00'3 6.9
2017-Nov-16 05:00N 40°40' W 074°04'3 4.7
2017-Nov-16 04:18N 40°38' W 074°08'0 0.0
2017-Nov-16 03:54N 40°38' W 074°08'0 0.2
2017-Nov-16 03:30N 40°39' W 074°08'3 5.9
2017-Nov-16 02:59N 40°38' W 074°12'2 1.8
2017-Nov-16 01:58N 40°36' W 074°12'4 1.2
2017-Nov-15 22:28N 40°33' W 074°15'3 7.3
2017-Nov-15 22:00N 40°36' W 074°12'3 5.4
2017-Nov-15 21:28N 40°38' W 074°12'0 0.3
2017-Nov-15 20:58N 40°38' W 074°12'3 6.0
2017-Nov-15 20:29N 40°39' W 074°08'0 0.0
2017-Nov-15 20:00N 40°38' W 074°08'0 0.0
2017-Nov-15 19:30N 40°38' W 074°08'0 0.0
2017-Nov-15 19:00N 40°38' W 074°08'2 3.8
2017-Nov-15 18:30N 40°39' W 074°05'0 0.1
2017-Nov-15 18:00N 40°39' W 074°05'2 0.3
2017-Nov-15 12:27N 40°38' W 074°08'0 0.0
2017-Nov-15 11:54N 40°38' W 074°08'3 5.8
2017-Nov-15 11:26N 40°38' W 074°11'0 0.1
2017-Nov-15 10:58N 40°39' W 074°11'0 0.6
2017-Nov-15 10:30N 40°39' W 074°11'3 6.7
2017-Nov-15 10:01N 40°39' W 074°07'3 5.7
2017-Nov-15 09:31N 40°38' W 074°03'4 7.1
2017-Nov-15 09:01N 40°39' W 074°08'0 0.0
2017-Nov-15 06:41N 40°38' W 074°08'0 0.0
2017-Nov-15 06:29N 40°38' W 074°08'0 0.0
2017-Nov-15 05:56N 40°38' W 074°08'0 0.0
2017-Nov-15 04:23N 40°38' W 074°08'0 0.0
2017-Nov-14 23:59N 40°38' W 074°08'1 2.0
2017-Nov-14 23:15N 40°39' W 074°06'0 0.6
2017-Nov-14 23:00N 40°39' W 074°06'3 6.2
2017-Nov-14 22:30N 40°39' W 074°10'3 5.8
2017-Nov-14 22:00N 40°36' W 074°12'4 3.2
2017-Nov-14 20:42N 40°33' W 074°15'3 8.7
2017-Nov-14 20:24N 40°35' W 074°13'4 8.8
2017-Nov-14 20:00N 40°38' W 074°12'3 5.6
2017-Nov-14 19:25N 40°38' W 074°08'0 0.0
2017-Nov-14 18:49N 40°38' W 074°08'0 0.0
2017-Nov-14 18:28N 40°38' W 074°08'0 0.0
2017-Nov-14 17:58N 40°38' W 074°08'0 0.1
2017-Nov-14 17:26N 40°38' W 074°08'1 0.3
2017-Nov-14 14:26N 40°39' W 074°07'1 0.5
2017-Nov-14 12:24N 40°38' W 074°08'0 0.0
2017-Nov-14 09:15N 40°38' W 074°08'0 0.0
2017-Nov-14 08:57N 40°38' W 074°08'0 0.0
2017-Nov-14 07:45N 40°38' W 074°08'0 0.0
2017-Nov-14 07:27N 40°38' W 074°08'0 0.0
2017-Nov-14 06:42N 40°38' W 074°08'1 7.0
2017-Nov-14 06:30N 40°39' W 074°10'2 4.3
2017-Nov-14 05:59N 40°38' W 074°12'2 5.1
2017-Nov-14 05:30N 40°39' W 074°09'1 2.2
2017-Nov-14 05:00N 40°38' W 074°08'0 0.0
2017-Nov-14 04:30N 40°38' W 074°08'0 0.0
2017-Nov-14 04:00N 40°38' W 074°08'0 0.0
2017-Nov-14 03:30N 40°38' W 074°08'0 0.0
2017-Nov-14 03:00N 40°38' W 074°08'0 0.0
2017-Nov-14 02:30N 40°38' W 074°08'0 0.0
2017-Nov-14 02:00N 40°38' W 074°08'0 0.0
2017-Nov-14 00:09N 40°38' W 074°08'0 0.0
2017-Nov-13 23:57N 40°38' W 074°08'0 0.0
2017-Nov-13 23:24N 40°38' W 074°08'3 6.9
2017-Nov-13 23:00N 40°39' W 074°11'3 0.1
2017-Nov-13 01:59N 40°38' W 074°08'0 0.0
2017-Nov-13 01:29N 40°38' W 074°08'0 0.0
2017-Nov-13 00:59N 40°38' W 074°08'0 0.0
2017-Nov-13 00:23N 40°38' W 074°08'0 0.0
2017-Nov-12 23:58N 40°38' W 074°08'0 0.0
2017-Nov-12 23:28N 40°38' W 074°08'0 0.0
2017-Nov-12 22:52N 40°38' W 074°08'0 0.0
2017-Nov-12 22:22N 40°38' W 074°08'0 0.0
2017-Nov-12 21:58N 40°38' W 074°08'0 0.0
2017-Nov-12 21:19N 40°38' W 074°08'0 0.0
2017-Nov-12 20:58N 40°38' W 074°08'0 0.0
2017-Nov-12 20:28N 40°38' W 074°08'0 0.0
2017-Nov-12 19:58N 40°38' W 074°08'0 0.0
2017-Nov-12 19:28N 40°38' W 074°08'0 0.0
2017-Nov-12 18:58N 40°38' W 074°08'0 0.0
2017-Nov-12 17:58N 40°38' W 074°08'0 0.0
2017-Nov-12 17:28N 40°38' W 074°08'0 0.0
2017-Nov-12 16:58N 40°38' W 074°08'0 0.0
2017-Nov-12 16:25N 40°38' W 074°08'0 0.0
2017-Nov-12 15:55N 40°38' W 074°08'0 0.0
2017-Nov-12 15:04N 40°38' W 074°08'0 0.0
2017-Nov-12 14:55N 40°38' W 074°08'0 0.8
2017-Nov-12 14:29N 40°39' W 074°07'2 3.2
2017-Nov-12 13:57N 40°39' W 074°05'0 0.0
2017-Nov-12 13:30N 40°39' W 074°05'0 0.0
2017-Nov-12 13:00N 40°39' W 074°05'2 4.2
2017-Nov-12 12:30N 40°39' W 074°08'2 4.3
2017-Nov-12 11:56N 40°41' W 074°08'0 0.4
2017-Nov-12 11:29N 40°41' W 074°09'1 1.5
2017-Nov-12 10:58N 40°40' W 074°08'2 3.2
2017-Nov-12 10:30N 40°39' W 074°08'3 6.2
2017-Nov-12 10:00N 40°39' W 074°04'2 4.1
2017-Nov-12 09:30N 40°41' W 074°04'0 0.4
2017-Nov-12 08:58N 40°41' W 074°04'2 3.4
2017-Nov-12 08:30N 40°39' W 074°04'3 4.8
2017-Nov-12 07:55N 40°38' W 074°08'0 0.0
2017-Nov-12 07:28N 40°38' W 074°08'0 0.0
2017-Nov-12 06:58N 40°38' W 074°08'0 0.0
2017-Nov-12 06:28N 40°38' W 074°08'0 0.0
2017-Nov-12 05:58N 40°38' W 074°08'0 0.0
2017-Nov-12 05:28N 40°38' W 074°08'0 0.0
2017-Nov-12 04:52N 40°38' W 074°08'0 0.0
2017-Nov-12 04:28N 40°38' W 074°08'0 0.0
2017-Nov-12 03:55N 40°38' W 074°08'0 0.0
2017-Nov-12 03:25N 40°38' W 074°08'0 0.0
2017-Nov-12 02:46N 40°38' W 074°08'0 0.0
2017-Nov-11 19:28N 40°38' W 074°08'2 3.8
2017-Nov-11 18:55N 40°39' W 074°05'0 0.4
2017-Nov-11 18:28N 40°39' W 074°05'0 1.0
2017-Nov-11 18:00N 40°39' W 074°05'2 1.0
2017-Nov-11 16:09N 40°38' W 074°08'1 6.6
2017-Nov-11 16:00N 40°39' W 074°09'3 4.4
2017-Nov-11 15:15N 40°36' W 074°12'1 4.4
2017-Nov-11 15:00N 40°37' W 074°12'2 4.2
2017-Nov-11 14:30N 40°39' W 074°10'3 6.8
2017-Nov-11 14:00N 40°42' W 074°07'1 2.3
2017-Nov-11 13:28N 40°43' W 074°07'2 4.6
2017-Nov-11 13:00N 40°41' W 074°08'2 3.4
2017-Nov-11 12:21N 40°38' W 074°08'0 0.0
2017-Nov-11 11:57N 40°38' W 074°08'0 0.0
2017-Nov-11 11:30N 40°38' W 074°08'0 0.0
2017-Nov-11 11:00N 40°38' W 074°08'0 0.0
2017-Nov-11 10:30N 40°38' W 074°08'0 0.0
2017-Nov-11 10:00N 40°38' W 074°08'0 0.0
2017-Nov-11 09:30N 40°38' W 074°08'0 0.0
2017-Nov-11 09:00N 40°38' W 074°08'0 0.0
2017-Nov-11 08:30N 40°38' W 074°08'0 0.0
2017-Nov-11 07:57N 40°38' W 074°08'0 0.0
2017-Nov-11 07:30N 40°38' W 074°08'0 0.0
2017-Nov-11 07:00N 40°38' W 074°08'0 0.0
2017-Nov-11 06:30N 40°38' W 074°08'0 0.0
2017-Nov-11 06:00N 40°38' W 074°08'0 0.0
2017-Nov-11 05:27N 40°38' W 074°08'0 0.0
2017-Nov-11 04:57N 40°38' W 074°08'0 0.0
2017-Nov-11 04:30N 40°38' W 074°08'0 0.0
2017-Nov-11 04:00N 40°38' W 074°08'0 1.0
2017-Nov-11 03:30N 40°39' W 074°08'3 4.4
2017-Nov-11 02:48N 40°38' W 074°12'0 1.0
2017-Nov-11 02:29N 40°38' W 074°12'3 0.7
2017-Nov-10 21:33N 40°38' W 074°08'0 7.5
2017-Nov-10 21:30N 40°39' W 074°08'4 8.1
2017-Nov-10 20:59N 40°43' W 074°07'1 2.1
2017-Nov-10 20:30N 40°42' W 074°07'2 4.3
2017-Nov-10 20:00N 40°40' W 074°08'2 4.4
2017-Nov-10 19:30N 40°39' W 074°11'2 2.5
2017-Nov-10 18:53N 40°38' W 074°12'1 0.6
2017-Nov-10 16:57N 40°36' W 074°12'0 0.2
2017-Nov-10 16:29N 40°36' W 074°12'0 0.4
2017-Nov-10 15:54N 40°37' W 074°12'1 2.9
2017-Nov-10 15:30N 40°38' W 074°12'3 6.6
2017-Nov-10 14:59N 40°38' W 074°08'0 0.0
2017-Nov-10 14:26N 40°38' W 074°08'0 0.0
2017-Nov-10 13:59N 40°38' W 074°08'0 0.0
2017-Nov-10 13:17N 40°38' W 074°08'0 0.0
2017-Nov-10 12:47N 40°38' W 074°08'0 0.0
2017-Nov-10 12:23N 40°38' W 074°08'0 0.0
2017-Nov-10 09:26N 40°38' W 074°08'0 0.0
2017-Nov-10 08:59N 40°38' W 074°08'0 0.0
2017-Nov-10 06:44N 40°38' W 074°08'0 0.0
2017-Nov-10 06:20N 40°38' W 074°08'0 0.0
2017-Nov-10 05:50N 40°38' W 074°08'0 0.0
2017-Nov-10 05:26N 40°38' W 074°08'0 0.0
2017-Nov-10 04:50N 40°38' W 074°08'0 0.0
2017-Nov-10 04:26N 40°38' W 074°08'0 0.0
2017-Nov-10 03:59N 40°38' W 074°08'0 0.0
2017-Nov-10 03:26N 40°38' W 074°08'0 0.0
2017-Nov-10 02:47N 40°38' W 074°08'0 0.0
2017-Nov-10 02:29N 40°38' W 074°08'0 0.0
2017-Nov-10 01:58N 40°38' W 074°08'0 0.0
2017-Nov-10 01:10N 40°38' W 074°08'0 0.0
2017-Nov-10 00:58N 40°38' W 074°08'  
Track history (hours):
 
Tides and Currents Weather Stations Pressure Air Temp Water Temp Dewpoint Dewpoint Depression Visibility Wind Speed Wind Dir Waves Ship Positions

Turecamo Girls

Owner: Moran Towing Corporation, New Canaan, CT. More information available from US FCC via Universal Licensing System and Coast Guard Vessel Documentation Center.

Last reported at 2017-Nov-20 00:29 UTC. Time now 2017-Nov-20 15:22 UTC.
Position N 40°38' W 074°08'.

Length 30 m; draft 4 m.

Type: Tug. MMSI: 366946710.

Date/timePositionNaut miles runAvg speedWind from/ knotsBaromVisibWave heightAir tempDewpointWater temp
2017-Nov-20 00:29N 40°38' W 074°08'0 0.0
2017-Nov-19 23:59N 40°38' W 074°08'0 0.0
2017-Nov-19 23:26N 40°38' W 074°08'0 0.0
2017-Nov-19 22:59N 40°38' W 074°08'0 0.0
2017-Nov-19 22:25N 40°38' W 074°08'0 0.0
2017-Nov-19 21:58N 40°38' W 074°08'0 0.0
2017-Nov-19 20:40N 40°38' W 074°08'0 0.0
2017-Nov-19 20:28N 40°38' W 074°08'0 0.0
2017-Nov-19 19:58N 40°38' W 074°08'0 0.0
2017-Nov-19 19:28N 40°38' W 074°08'0 0.0
2017-Nov-19 18:58N 40°38' W 074°08'0 0.1
2017-Nov-19 18:30N 40°38' W 074°08'3 5.9
2017-Nov-19 18:01N 40°40' W 074°04'510.4
2017-Nov-19 17:30N 40°43' W 073°59'3 5.7
2017-Nov-19 16:58N 40°46' W 073°57'0 0.0
2017-Nov-19 16:28N 40°46' W 073°57'0 0.0
2017-Nov-19 15:58N 40°46' W 073°57'0 0.0
2017-Nov-19 15:28N 40°46' W 073°57'0 0.8
2017-Nov-19 15:00N 40°45' W 073°57'4 8.1
2017-Nov-19 14:30N 40°42' W 074°00'4 8.8
2017-Nov-19 14:00N 40°39' W 074°05'2 3.5
2017-Nov-19 13:19N 40°38' W 074°08'0 0.0
2017-Nov-19 13:00N 40°38' W 074°08'3 6.3
2017-Nov-19 12:30N 40°40' W 074°04'0 0.0
2017-Nov-19 12:00N 40°40' W 074°04'0 0.0
2017-Nov-19 11:30N 40°40' W 074°04'0 0.0
2017-Nov-19 11:00N 40°40' W 074°04'0 0.0
2017-Nov-19 10:30N 40°40' W 074°04'0 0.0
2017-Nov-19 10:00N 40°40' W 074°04'0 0.0
2017-Nov-19 09:30N 40°40' W 074°04'0 0.0
2017-Nov-19 09:00N 40°40' W 074°04'0 0.0
2017-Nov-19 08:30N 40°40' W 074°04'0 0.0
2017-Nov-19 08:00N 40°40' W 074°04'0 0.0
2017-Nov-19 07:30N 40°40' W 074°04'0 0.0
2017-Nov-19 07:00N 40°40' W 074°04'0 0.0
2017-Nov-19 06:30N 40°40' W 074°04'0 0.0
2017-Nov-19 06:00N 40°40' W 074°04'0 0.0
2017-Nov-19 05:30N 40°40' W 074°04'0 0.0
2017-Nov-19 05:00N 40°40' W 074°04'0 0.0
2017-Nov-19 04:27N 40°40' W 074°04'0 0.6
2017-Nov-19 04:00N 40°40' W 074°04'0 0.0
2017-Nov-19 03:30N 40°40' W 074°04'0 0.0
2017-Nov-19 03:00N 40°40' W 074°04'0 0.0
2017-Nov-19 02:30N 40°40' W 074°04'0 0.0
2017-Nov-19 01:59N 40°40' W 074°04'0 0.0
2017-Nov-19 01:29N 40°40' W 074°04'0 0.0
2017-Nov-19 00:59N 40°40' W 074°04'0 0.0
2017-Nov-19 00:29N 40°40' W 074°04'0 0.0
2017-Nov-18 23:59N 40°40' W 074°04'0 0.0
2017-Nov-18 23:29N 40°40' W 074°04'0 0.0
2017-Nov-18 22:59N 40°40' W 074°04'0 0.0
2017-Nov-18 22:29N 40°40' W 074°04'0 0.0
2017-Nov-18 21:59N 40°40' W 074°04'0 0.0
2017-Nov-18 21:29N 40°40' W 074°04'0 0.0
2017-Nov-18 20:59N 40°40' W 074°04'0 0.0
2017-Nov-18 20:29N 40°40' W 074°04'0 0.0
2017-Nov-18 19:59N 40°40' W 074°04'0 0.0
2017-Nov-18 19:29N 40°40' W 074°04'1 2.0
2017-Nov-18 18:58N 40°39' W 074°05'0 0.3
2017-Nov-18 18:28N 40°39' W 074°05'1 2.0
2017-Nov-18 18:00N 40°39' W 074°06'1 0.8
2017-Nov-18 16:27N 40°38' W 074°08'0 0.0
2017-Nov-18 14:48N 40°38' W 074°08'0 0.0
2017-Nov-18 14:27N 40°38' W 074°08'0 0.0
2017-Nov-18 14:00N 40°38' W 074°08'0 0.0
2017-Nov-18 13:08N 40°38' W 074°08'0 0.8
2017-Nov-18 13:00N 40°39' W 074°08'3 6.9
2017-Nov-18 12:30N 40°37' W 074°12'2 3.7
2017-Nov-18 11:56N 40°35' W 074°12'0 0.0
2017-Nov-18 11:17N 40°35' W 074°12'0 0.8
2017-Nov-18 10:53N 40°36' W 074°12'2 4.3
2017-Nov-18 10:30N 40°37' W 074°12'2 4.5
2017-Nov-18 10:00N 40°39' W 074°10'2 2.8
2017-Nov-18 09:22N 40°38' W 074°08'0 0.0
2017-Nov-18 08:58N 40°38' W 074°08'0 0.0
2017-Nov-18 08:28N 40°38' W 074°08'0 0.0
2017-Nov-18 07:58N 40°38' W 074°08'0 0.0
2017-Nov-18 07:28N 40°38' W 074°08'0 0.0
2017-Nov-18 06:58N 40°38' W 074°08'0 0.0
2017-Nov-18 06:28N 40°38' W 074°08'0 0.0
2017-Nov-18 05:55N 40°38' W 074°08'0 0.0
2017-Nov-18 05:25N 40°38' W 074°08'0 0.0
2017-Nov-18 04:58N 40°38' W 074°08'0 0.0
2017-Nov-18 04:28N 40°38' W 074°08'0 0.0
2017-Nov-18 03:58N 40°38' W 074°08'0 0.0
2017-Nov-18 03:28N 40°38' W 074°08'0 0.0
2017-Nov-18 02:58N 40°38' W 074°08'0 0.0
2017-Nov-18 02:25N 40°38' W 074°08'0 0.0
2017-Nov-18 01:58N 40°38' W 074°08'0 0.0
2017-Nov-18 01:28N 40°38' W 074°08'1 1.2
2017-Nov-18 00:39N 40°39' W 074°07'0 0.0
2017-Nov-18 00:27N 40°39' W 074°07'0 0.2
2017-Nov-18 00:00N 40°39' W 074°07'3 5.8
2017-Nov-17 23:29N 40°39' W 074°03'2 3.7
2017-Nov-17 23:00N 40°41' W 074°02'1 2.0
2017-Nov-17 22:30N 40°41' W 074°01'1 1.5
2017-Nov-17 22:01N 40°41' W 074°01'3 6.2
2017-Nov-17 21:31N 40°39' W 074°04'3 4.6
2017-Nov-17 20:56N 40°38' W 074°08'0 0.1
2017-Nov-17 20:30N 40°38' W 074°08'0 0.0
2017-Nov-17 19:05N 40°38' W 074°08'0 0.7
2017-Nov-17 19:00N 40°39' W 074°08'2 3.9
2017-Nov-17 18:28N 40°39' W 074°05'1 1.3
2017-Nov-17 18:01N 40°39' W 074°04'1 1.9
2017-Nov-17 17:28N 40°40' W 074°04'0 0.0
2017-Nov-17 16:58N 40°40' W 074°04'0 0.0
2017-Nov-17 16:28N 40°40' W 074°04'0 0.0
2017-Nov-17 15:58N 40°40' W 074°04'0 0.0
2017-Nov-17 15:28N 40°40' W 074°04'1 1.5
2017-Nov-17 14:58N 40°40' W 074°05'1 1.3
2017-Nov-17 14:30N 40°40' W 074°04'2 4.6
2017-Nov-17 13:59N 40°38' W 074°03'0 0.4
2017-Nov-17 13:24N 40°38' W 074°03'2 4.9
2017-Nov-17 13:00N 40°39' W 074°05'2 3.1
2017-Nov-17 12:21N 40°38' W 074°08'0 0.1
2017-Nov-17 12:00N 40°38' W 074°08'3 5.2
2017-Nov-17 11:30N 40°41' W 074°08'0 0.2
2017-Nov-17 11:00N 40°41' W 074°08'1 2.9
2017-Nov-17 10:30N 40°40' W 074°08'1 2.9
2017-Nov-17 10:01N 40°39' W 074°07'3 5.9
2017-Nov-17 09:31N 40°38' W 074°03'1 1.0
2017-Nov-17 08:59N 40°38' W 074°03'2 4.8
2017-Nov-17 08:30N 40°39' W 074°06'2 1.9
2017-Nov-17 07:40N 40°38' W 074°08'0 0.0
2017-Nov-17 07:28N 40°38' W 074°08'0 0.0
2017-Nov-17 06:52N 40°38' W 074°08'0 0.0
2017-Nov-17 06:28N 40°38' W 074°08'0 0.1
2017-Nov-17 05:42N 40°38' W 074°08'1 4.4
2017-Nov-17 05:29N 40°39' W 074°07'0 0.1
2017-Nov-17 04:58N 40°39' W 074°07'1 2.0
2017-Nov-17 04:28N 40°38' W 074°08'0 0.0
2017-Nov-17 03:55N 40°38' W 074°08'3 7.1
2017-Nov-17 03:30N 40°38' W 074°12'1 1.1
2017-Nov-17 02:58N 40°38' W 074°12'0 0.2
2017-Nov-17 01:53N 40°38' W 074°12'3 2.5
2017-Nov-17 00:51N 40°35' W 074°13'0 0.1
2017-Nov-16 21:26N 40°35' W 074°12'1 3.4
2017-Nov-16 21:00N 40°37' W 074°12'2 4.4
2017-Nov-16 20:29N 40°39' W 074°11'2 4.5
2017-Nov-16 19:59N 40°39' W 074°08'0 0.3
2017-Nov-16 19:24N 40°38' W 074°08'0 0.0
2017-Nov-16 18:48N 40°38' W 074°08'0 0.0
2017-Nov-16 18:27N 40°38' W 074°08'1 2.0
2017-Nov-16 17:58N 40°39' W 074°07'1 1.6
2017-Nov-16 17:30N 40°39' W 074°06'1 0.9
2017-Nov-16 16:56N 40°39' W 074°05'2 1.4
2017-Nov-16 15:25N 40°38' W 074°08'0 0.0
2017-Nov-16 14:43N 40°38' W 074°08'0 0.0
2017-Nov-16 14:25N 40°38' W 074°08'0 0.0
2017-Nov-16 13:58N 40°38' W 074°08'3 4.9
2017-Nov-16 13:27N 40°39' W 074°11'3 2.0
2017-Nov-16 11:50N 40°36' W 074°12'2 4.4
2017-Nov-16 11:29N 40°37' W 074°12'3 5.4
2017-Nov-16 11:00N 40°39' W 074°10'1 2.6
2017-Nov-16 10:29N 40°38' W 074°08'0 0.0
2017-Nov-16 09:59N 40°38' W 074°08'1 1.5
2017-Nov-16 09:30N 40°39' W 074°07'510.1
2017-Nov-16 09:00N 40°41' W 074°01'4 7.8
2017-Nov-16 08:30N 40°44' W 073°58'5 6.5
2017-Nov-16 07:45N 40°48' W 073°54'0 0.1
2017-Nov-16 07:18N 40°48' W 073°54'1 2.3
2017-Nov-16 07:00N 40°48' W 073°55'3 5.1
2017-Nov-16 06:30N 40°46' W 073°57'3 5.1
2017-Nov-16 06:00N 40°43' W 073°58'2 4.6
2017-Nov-16 05:30N 40°42' W 074°00'3 6.9
2017-Nov-16 05:00N 40°40' W 074°04'3 4.7
2017-Nov-16 04:18N 40°38' W 074°08'0 0.0
2017-Nov-16 03:54N 40°38' W 074°08'0 0.2
2017-Nov-16 03:30N 40°39' W 074°08'3 5.9
2017-Nov-16 02:59N 40°38' W 074°12'2 1.8
2017-Nov-16 01:58N 40°36' W 074°12'4 1.2
2017-Nov-15 22:28N 40°33' W 074°15'3 7.3
2017-Nov-15 22:00N 40°36' W 074°12'3 5.4
2017-Nov-15 21:28N 40°38' W 074°12'0 0.3
2017-Nov-15 20:58N 40°38' W 074°12'3 6.0
2017-Nov-15 20:29N 40°39' W 074°08'0 0.0
2017-Nov-15 20:00N 40°38' W 074°08'0 0.0
2017-Nov-15 19:30N 40°38' W 074°08'0 0.0
2017-Nov-15 19:00N 40°38' W 074°08'2 3.8
2017-Nov-15 18:30N 40°39' W 074°05'0 0.1
2017-Nov-15 18:00N 40°39' W 074°05'2 0.3
2017-Nov-15 12:27N 40°38' W 074°08'0 0.0
2017-Nov-15 11:54N 40°38' W 074°08'3 5.8
2017-Nov-15 11:26N 40°38' W 074°11'0 0.1
2017-Nov-15 10:58N 40°39' W 074°11'0 0.6
2017-Nov-15 10:30N 40°39' W 074°11'3 6.7
2017-Nov-15 10:01N 40°39' W 074°07'3 5.7
2017-Nov-15 09:31N 40°38' W 074°03'4 7.1
2017-Nov-15 09:01N 40°39' W 074°08'0 0.0
2017-Nov-15 06:41N 40°38' W 074°08'0 0.0
2017-Nov-15 06:29N 40°38' W 074°08'0 0.0
2017-Nov-15 05:56N 40°38' W 074°08'0 0.0
2017-Nov-15 04:23N 40°38' W 074°08'0 0.0
2017-Nov-14 23:59N 40°38' W 074°08'1 2.0
2017-Nov-14 23:15N 40°39' W 074°06'0 0.6
2017-Nov-14 23:00N 40°39' W 074°06'3 6.2
2017-Nov-14 22:30N 40°39' W 074°10'3 5.8
2017-Nov-14 22:00N 40°36' W 074°12'4 3.2
2017-Nov-14 20:42N 40°33' W 074°15'3 8.7
2017-Nov-14 20:24N 40°35' W 074°13'4 8.8
2017-Nov-14 20:00N 40°38' W 074°12'3 5.6
2017-Nov-14 19:25N 40°38' W 074°08'0 0.0
2017-Nov-14 18:49N 40°38' W 074°08'0 0.0
2017-Nov-14 18:28N 40°38' W 074°08'0 0.0
2017-Nov-14 17:58N 40°38' W 074°08'0 0.1
2017-Nov-14 17:26N 40°38' W 074°08'1 0.3
2017-Nov-14 14:26N 40°39' W 074°07'1 0.5
2017-Nov-14 12:24N 40°38' W 074°08'0 0.0
2017-Nov-14 09:15N 40°38' W 074°08'0 0.0
2017-Nov-14 08:57N 40°38' W 074°08'0 0.0
2017-Nov-14 07:45N 40°38' W 074°08'0 0.0
2017-Nov-14 07:27N 40°38' W 074°08'0 0.0
2017-Nov-14 06:42N 40°38' W 074°08'1 7.0
2017-Nov-14 06:30N 40°39' W 074°10'2 4.3
2017-Nov-14 05:59N 40°38' W 074°12'2 5.1
2017-Nov-14 05:30N 40°39' W 074°09'1 2.2
2017-Nov-14 05:00N 40°38' W 074°08'0 0.0
2017-Nov-14 04:30N 40°38' W 074°08'0 0.0
2017-Nov-14 04:00N 40°38' W 074°08'0 0.0
2017-Nov-14 03:30N 40°38' W 074°08'0 0.0
2017-Nov-14 03:00N 40°38' W 074°08'0 0.0
2017-Nov-14 02:30N 40°38' W 074°08'0 0.0
2017-Nov-14 02:00N 40°38' W 074°08'0 0.0
2017-Nov-14 00:09N 40°38' W 074°08'0 0.0
2017-Nov-13 23:57N 40°38' W 074°08'0 0.0
2017-Nov-13 23:24N 40°38' W 074°08'3 6.9
2017-Nov-13 23:00N 40°39' W 074°11'3 0.1
2017-Nov-13 01:59N 40°38' W 074°08'0 0.0
2017-Nov-13 01:29N 40°38' W 074°08'0 0.0
2017-Nov-13 00:59N 40°38' W 074°08'0 0.0
2017-Nov-13 00:23N 40°38' W 074°08'0 0.0
2017-Nov-12 23:58N 40°38' W 074°08'0 0.0
2017-Nov-12 23:28N 40°38' W 074°08'0 0.0
2017-Nov-12 22:52N 40°38' W 074°08'0 0.0
2017-Nov-12 22:22N 40°38' W 074°08'0 0.0
2017-Nov-12 21:58N 40°38' W 074°08'0 0.0
2017-Nov-12 21:19N 40°38' W 074°08'0 0.0
2017-Nov-12 20:58N 40°38' W 074°08'0 0.0
2017-Nov-12 20:28N 40°38' W 074°08'0 0.0
2017-Nov-12 19:58N 40°38' W 074°08'0 0.0
2017-Nov-12 19:28N 40°38' W 074°08'0 0.0
2017-Nov-12 18:58N 40°38' W 074°08'0 0.0
2017-Nov-12 17:58N 40°38' W 074°08'0 0.0
2017-Nov-12 17:28N 40°38' W 074°08'0 0.0
2017-Nov-12 16:58N 40°38' W 074°08'0 0.0
2017-Nov-12 16:25N 40°38' W 074°08'0 0.0
2017-Nov-12 15:55N 40°38' W 074°08'0 0.0
2017-Nov-12 15:04N 40°38' W 074°08'0 0.0
2017-Nov-12 14:55N 40°38' W 074°08'0 0.8
2017-Nov-12 14:29N 40°39' W 074°07'2 3.2
2017-Nov-12 13:57N 40°39' W 074°05'0 0.0
2017-Nov-12 13:30N 40°39' W 074°05'0 0.0
2017-Nov-12 13:00N 40°39' W 074°05'2 4.2
2017-Nov-12 12:30N 40°39' W 074°08'2 4.3
2017-Nov-12 11:56N 40°41' W 074°08'0 0.4
2017-Nov-12 11:29N 40°41' W 074°09'1 1.5
2017-Nov-12 10:58N 40°40' W 074°08'2 3.2
2017-Nov-12 10:30N 40°39' W 074°08'3 6.2
2017-Nov-12 10:00N 40°39' W 074°04'2 4.1
2017-Nov-12 09:30N 40°41' W 074°04'0 0.4
2017-Nov-12 08:58N 40°41' W 074°04'2 3.4
2017-Nov-12 08:30N 40°39' W 074°04'3 4.8
2017-Nov-12 07:55N 40°38' W 074°08'0 0.0
2017-Nov-12 07:28N 40°38' W 074°08'0 0.0
2017-Nov-12 06:58N 40°38' W 074°08'0 0.0
2017-Nov-12 06:28N 40°38' W 074°08'0 0.0
2017-Nov-12 05:58N 40°38' W 074°08'0 0.0
2017-Nov-12 05:28N 40°38' W 074°08'0 0.0
2017-Nov-12 04:52N 40°38' W 074°08'0 0.0
2017-Nov-12 04:28N 40°38' W 074°08'0 0.0
2017-Nov-12 03:55N 40°38' W 074°08'0 0.0
2017-Nov-12 03:25N 40°38' W 074°08'0 0.0
2017-Nov-12 02:46N 40°38' W 074°08'0 0.0
2017-Nov-11 19:28N 40°38' W 074°08'2 3.8
2017-Nov-11 18:55N 40°39' W 074°05'0 0.4
2017-Nov-11 18:28N 40°39' W 074°05'0 1.0
2017-Nov-11 18:00N 40°39' W 074°05'2 1.0
2017-Nov-11 16:09N 40°38' W 074°08'1 6.6
2017-Nov-11 16:00N 40°39' W 074°09'3 4.4
2017-Nov-11 15:15N 40°36' W 074°12'1 4.4
2017-Nov-11 15:00N 40°37' W 074°12'2 4.2
2017-Nov-11 14:30N 40°39' W 074°10'3 6.8
2017-Nov-11 14:00N 40°42' W 074°07'1 2.3
2017-Nov-11 13:28N 40°43' W 074°07'2 4.6
2017-Nov-11 13:00N 40°41' W 074°08'2 3.4
2017-Nov-11 12:21N 40°38' W 074°08'0 0.0
2017-Nov-11 11:57N 40°38' W 074°08'0 0.0
2017-Nov-11 11:30N 40°38' W 074°08'0 0.0
2017-Nov-11 11:00N 40°38' W 074°08'0 0.0
2017-Nov-11 10:30N 40°38' W 074°08'0 0.0
2017-Nov-11 10:00N 40°38' W 074°08'0 0.0
2017-Nov-11 09:30N 40°38' W 074°08'0 0.0
2017-Nov-11 09:00N 40°38' W 074°08'0 0.0
2017-Nov-11 08:30N 40°38' W 074°08'0 0.0
2017-Nov-11 07:57N 40°38' W 074°08'0 0.0
2017-Nov-11 07:30N 40°38' W 074°08'0 0.0
2017-Nov-11 07:00N 40°38' W 074°08'0 0.0
2017-Nov-11 06:30N 40°38' W 074°08'0 0.0
2017-Nov-11 06:00N 40°38' W 074°08'0 0.0
2017-Nov-11 05:27N 40°38' W 074°08'0 0.0
2017-Nov-11 04:57N 40°38' W 074°08'0 0.0
2017-Nov-11 04:30N 40°38' W 074°08'0 0.0
2017-Nov-11 04:00N 40°38' W 074°08'0 1.0
2017-Nov-11 03:30N 40°39' W 074°08'3 4.4
2017-Nov-11 02:48N 40°38' W 074°12'0 1.0
2017-Nov-11 02:29N 40°38' W 074°12'3 0.7
2017-Nov-10 21:33N 40°38' W 074°08'0 7.5
2017-Nov-10 21:30N 40°39' W 074°08'4 8.1
2017-Nov-10 20:59N 40°43' W 074°07'1 2.1
2017-Nov-10 20:30N 40°42' W 074°07'2 4.3
2017-Nov-10 20:00N 40°40' W 074°08'2 4.4
2017-Nov-10 19:30N 40°39' W 074°11'2 2.5
2017-Nov-10 18:53N 40°38' W 074°12'1 0.6
2017-Nov-10 16:57N 40°36' W 074°12'0 0.2
2017-Nov-10 16:29N 40°36' W 074°12'0 0.4
2017-Nov-10 15:54N 40°37' W 074°12'1 2.9
2017-Nov-10 15:30N 40°38' W 074°12'3 6.6
2017-Nov-10 14:59N 40°38' W 074°08'0 0.0
2017-Nov-10 14:26N 40°38' W 074°08'0 0.0
2017-Nov-10 13:59N 40°38' W 074°08'0 0.0
2017-Nov-10 13:17N 40°38' W 074°08'0 0.0
2017-Nov-10 12:47N 40°38' W 074°08'0 0.0
2017-Nov-10 12:23N 40°38' W 074°08'0 0.0
2017-Nov-10 09:26N 40°38' W 074°08'0 0.0
2017-Nov-10 08:59N 40°38' W 074°08'0 0.0
2017-Nov-10 06:44N 40°38' W 074°08'0 0.0
2017-Nov-10 06:20N 40°38' W 074°08'0 0.0
2017-Nov-10 05:50N 40°38' W 074°08'0 0.0
2017-Nov-10 05:26N 40°38' W 074°08'0 0.0
2017-Nov-10 04:50N 40°38' W 074°08'0 0.0
2017-Nov-10 04:26N 40°38' W 074°08'0 0.0
2017-Nov-10 03:59N 40°38' W 074°08'0 0.0
2017-Nov-10 03:26N 40°38' W 074°08'0 0.0
2017-Nov-10 02:47N 40°38' W 074°08'0 0.0
2017-Nov-10 02:29N 40°38' W 074°08'0 0.0
2017-Nov-10 01:58N 40°38' W 074°08'0 0.0
2017-Nov-10 01:10N 40°38' W 074°08'0 0.0
2017-Nov-10 00:58N 40°38' W 074°08'  

Dump ship's entire track history